ASN logo
ASN Wikibase Occurrence # 206869
Last updated: 23 June 2018
This information is added by users of ASN. Neither ASN nor the Flight Safety Foundation are responsible for the completeness or correctness of this information. If you feel this information is incomplete or incorrect, you can submit corrected information.

Date:28-FEB-2018
Time:ca 17:05 LT
Type:Silhouette image of generic A320 model; specific model in this crash may look slightly different
Airbus A320-214
Owner/operator:SmartLynx Estonia
Registration: ES-SAN
C/n / msn: 1213
Fatalities:Fatalities: 0 / Occupants: 7
Other fatalities:0
Aircraft damage: Unknown
Location:Tallinn-Ülemiste Airport (TLL/EETN) -   Estonia
Phase: Landing
Nature:Training
Departure airport:Tallinn-Ülemiste Airport (TLL/EETN)
Destination airport:Tallinn-Ülemiste Airport (TLL/EETN)
Narrative:
A SmartLynx Estonia Airbus A320-214 suffered a landing incident at Tallinn Airport, Estonia.
At 12:03 hours local time the aircraft departed Tallinn as crew training flight MYX9001. Numerous circuits and touch-and-goes were performed, including two full stop landings.
About 17:05 the aircraft suffered an incident during landing rollout. The aircraft came to a stop in the snow to the left of runway 08. The flight crew members evacuated the aircraft via the L1 door emergency escape slides.
A video of the incident shows what appears to be a tire rolling away from the aircraft as it came to a stop. Photos from the scene seem to show that one of the nose landing gear tires is missing.

Post-incident Notam:

A0561/18 NOTAMN
Q) EETT/QOBCE/IV/M /A /000/999/5925N02450E005
A) EETN B) 1802281930 C) 1802282359 EST
E) WRECKAGE ON THE EDGE OF THE RWY AT PSN 592446.51N 0245109.36E
(136M EAST FROM RWY AND TWY F INTERSECTION), MAX ELEV 173FT AMSL.
CREATED: 28 Feb 2018 19:18:00
SOURCE: EUECYIYN

Weather about the time of the incident (17:05 LT = 1505Z):
EETN 281620Z 09010KT 9999 -SN OVC014 M14/M16 Q1042 R08/490195 NOSIG
EETN 281550Z 09011KT 9999 -SN DRSN OVC013 M13/M15 Q1042 R08/490195 NOSIG
EETN 281520Z 07012KT 9999 -SHSN DRSN FEW008 BKN013 FEW015CB M13/M15 Q1043 R08/490195 NOSIG
EETN 281450Z 07013KT 9000 -SHSN DRSN FEW008 BKN013 FEW015CB M13/M15 Q1043 R08/810295 NOSIG
EETN 281420Z 07011KT 3700 SHSN DRSN SCT009 SCT013CB M12/M15 Q1043 R08/810295 NOSIG

Sources:

https://www.flightradar24.com/data/aircraft/es-san#1091b691
http://www.lentoposti.fi/uutiset/smartlynxin_airbus_a320_ajautui_ulos_kiitotielt_tallinnassa_lentokentt_suljettu_toistaiseksi_video
http://rus.delfi.lv/news/daily/abroad/foto-video-samolet-latvijskoj-kompanii-smartlynx-sovershil-avarijnuyu-posadku-v-talline.d?id=49794295
http://f10.pmo.ee/RFFRjxCyHGX0V8IFK-94iZLcciU=/fit-in/1980x1980/filters:no_upscale()/nginx/o/2018/03/01/7648997t1hf7bf.jpg
http://f10.pmo.ee/HO0INA8JgjVoVpZztPTrItgujk0=/fit-in/1980x1980/filters:no_upscale()/nginx/o/2018/03/01/7648999t1hb724.jpg
f10.pmo.ee/TKO0eXK2KJI28Et1a0oCmB0zNQs=/fit-in/1980x1980/filters:no_upscale()/nginx/o/2018/03/01/7649003t1h4a97.jpg
f12.pmo.ee/Wgvtv4osmd5Dy32Zuiwb2JLhBM4=/fit-in/1980x1980/filters:no_upscale()/nginx/o/2018/03/01/7649001t1h11dd.jpg


Revision history:

Date/timeContributorUpdates
28-Feb-2018 20:50 harro Added
28-Feb-2018 21:02 harro Updated [Time, Embed code, Narrative]
28-Feb-2018 21:09 harro Updated [Time, Total occupants, Source, Narrative]
28-Feb-2018 21:14 harro Updated [Narrative]
01-Mar-2018 08:21 Anon. Updated [Total occupants]
01-Mar-2018 17:29 Anon. Updated [Source]

Corrections or additions? ... Edit this accident description